createdAt,value
2022-09-01T00:00:09.535Z,101921.22
2022-09-01T00:02:37.086Z,101908.19
2022-09-01T00:05:07.582Z,101922.06
2022-09-01T00:07:35.331Z,101908.19
2022-09-01T00:10:06.887Z,101920.41
2022-09-01T00:12:34.165Z,101903.59
2022-09-01T00:15:01.085Z,101905.50
2022-09-01T00:17:28.051Z,101904.94
2022-09-01T00:19:55.258Z,101914.69
2022-09-01T00:22:22.169Z,101927.41
2022-09-01T00:24:49.156Z,101917.66
2022-09-01T00:27:16.454Z,101915.47
2022-09-01T00:29:44.069Z,101926.03
2022-09-01T00:32:12.204Z,101913.56
2022-09-01T00:34:39.921Z,101911.69
2022-09-01T00:37:07.675Z,101913.81
2022-09-01T00:39:35.156Z,101914.06
2022-09-01T00:42:02.291Z,101912.69
2022-09-01T00:44:31.175Z,101915.16
2022-09-01T00:46:59.920Z,101911.38
2022-09-01T00:49:31.481Z,101911.63
2022-09-01T00:52:07.413Z,101908.09
2022-09-01T00:54:44.109Z,101902.34
2022-09-01T00:57:12.949Z,101896.13
2022-09-01T00:59:55.136Z,101905.06
2022-09-01T01:02:22.853Z,101901.53
2022-09-01T01:04:49.859Z,101904.25
2022-09-01T01:07:17.342Z,101904.50
2022-09-01T01:09:46.410Z,101902.84
2022-09-01T01:12:18.110Z,101898.53
2022-09-01T01:14:50.609Z,101902.31
2022-09-01T01:17:23.549Z,101905.25
2022-09-01T01:20:13.473Z,101906.34
2022-09-01T01:23:20.315Z,101908.47
2022-09-01T01:25:56.426Z,101904.38
2022-09-01T01:28:27.106Z,101906.22
2022-09-01T01:31:01.552Z,101910.25
2022-09-01T01:33:44.471Z,101909.44
2022-09-01T01:36:19.369Z,101901.00
2022-09-01T01:38:49.487Z,101907.25
2022-09-01T01:41:19.762Z,101907.75
2022-09-01T01:43:48.182Z,101907.19
2022-09-01T01:46:19.175Z,101915.00
2022-09-01T01:48:48.740Z,101907.13
2022-09-01T01:51:21.249Z,101898.69
2022-09-01T01:53:52.573Z,101902.41
2022-09-01T01:56:20.381Z,101898.03
2022-09-01T01:58:47.371Z,101894.22
2022-09-01T02:01:17.095Z,101889.31
2022-09-01T02:03:45.361Z,101889.81
2022-09-01T02:06:12.353Z,101883.28
2022-09-01T02:08:41.496Z,101888.13
2022-09-01T02:11:08.873Z,101899.19
2022-09-01T02:13:36.036Z,101894.53
2022-09-01T02:16:13.421Z,101907.25
2022-09-01T02:18:48.919Z,101902.34
2022-09-01T02:21:20.541Z,101908.81
2022-09-01T02:24:01.942Z,101902.00
2022-09-01T02:26:38.837Z,101899.25
2022-09-01T02:29:17.804Z,101903.84
2022-09-01T02:31:48.296Z,101903.53
2022-09-01T02:34:17.283Z,101895.09
2022-09-01T02:36:48.925Z,101900.75
2022-09-01T02:39:32.678Z,101899.56
2022-09-01T02:42:01.136Z,101896.56
2022-09-01T02:44:32.328Z,101887.50
2022-09-01T02:47:00.811Z,101902.66
2022-09-01T02:49:29.686Z,101895.28
2022-09-01T02:52:01.379Z,101893.88
2022-09-01T02:54:33.226Z,101890.88
2022-09-01T02:57:01.287Z,101884.56
2022-09-01T02:59:30.690Z,101891.53
2022-09-01T03:02:01.336Z,101888.97
2022-09-01T03:04:35.017Z,101885.38
2022-09-01T03:07:04.631Z,101893.66
2022-09-01T03:09:35.579Z,101887.28
2022-09-01T03:12:03.561Z,101890.72
2022-09-01T03:14:31.920Z,101896.78
2022-09-01T03:17:00.683Z,101886.88
2022-09-01T03:19:30.761Z,101886.41
2022-09-01T03:22:00.254Z,101891.16
2022-09-01T03:24:30.753Z,101888.84
2022-09-01T03:26:58.018Z,101888.44
2022-09-01T03:29:25.026Z,101901.47
2022-09-01T03:31:52.513Z,101895.16
2022-09-01T03:34:23.413Z,101898.25
2022-09-01T03:36:52.313Z,101900.97
2022-09-01T03:39:26.582Z,101891.63
2022-09-01T03:41:54.011Z,101893.41
2022-09-01T03:44:21.126Z,101890.84
2022-09-01T03:46:48.436Z,101895.56
2022-09-01T03:49:25.224Z,101895.47
2022-09-01T03:51:55.295Z,101891.22
2022-09-01T03:54:28.488Z,101889.72
2022-09-01T03:56:59.640Z,101889.03
2022-09-01T03:59:28.414Z,101893.22
2022-09-01T04:01:56.895Z,101892.53
2022-09-01T04:04:24.573Z,101882.94
2022-09-01T04:06:52.165Z,101888.69
2022-09-01T04:09:19.030Z,101893.47
2022-09-01T04:11:46.861Z,101889.84
2022-09-01T04:14:16.107Z,101891.38
2022-09-01T04:17:02.805Z,101898.53
2022-09-01T04:19:37.129Z,101890.31
2022-09-01T04:22:05.339Z,101889.63
2022-09-01T04:24:45.495Z,101900.28
2022-09-01T04:27:14.180Z,101893.94
2022-09-01T04:29:41.963Z,101895.00
2022-09-01T04:32:13.188Z,101894.41
2022-09-01T04:34:43.427Z,101896.75
2022-09-01T04:37:21.584Z,101895.34
2022-09-01T04:39:58.942Z,101895.78
2022-09-01T04:42:32.655Z,101900.34
2022-09-01T04:45:10.052Z,101895.22
2022-09-01T04:47:45.486Z,101901.88
2022-09-01T04:50:17.852Z,101902.94
2022-09-01T04:53:12.219Z,101900.47
2022-09-01T04:55:46.299Z,101899.66
2022-09-01T04:58:19.281Z,101904.34
2022-09-01T05:00:49.695Z,101905.75
2022-09-01T05:03:21.542Z,101903.88
2022-09-01T05:05:54.987Z,101907.97
2022-09-01T05:08:24.525Z,101899.44
2022-09-01T05:10:56.648Z,101902.13
2022-09-01T05:13:40.916Z,101899.78
2022-09-01T05:16:15.223Z,101909.63
2022-09-01T05:18:49.121Z,101907.28
2022-09-01T05:21:22.416Z,101903.31
2022-09-01T05:23:51.611Z,101889.16
2022-09-01T05:26:26.258Z,101895.72
2022-09-01T05:28:58.679Z,101893.94
2022-09-01T05:31:34.655Z,101902.16
2022-09-01T05:34:03.339Z,101899.81
2022-09-01T05:36:34.288Z,101895.00
2022-09-01T05:39:04.832Z,101896.53
2022-09-01T05:41:33.902Z,101902.84
2022-09-01T05:44:07.968Z,101907.28
2022-09-01T05:46:39.302Z,101911.97
2022-09-01T05:49:13.740Z,101911.25
2022-09-01T05:51:45.355Z,101914.44
2022-09-01T05:54:14.617Z,101919.13
2022-09-01T05:56:44.801Z,101918.19
2022-09-01T05:59:25.220Z,101920.19
2022-09-01T06:02:04.083Z,101920.78
2022-09-01T06:04:31.629Z,101916.41
2022-09-01T06:07:10.084Z,101905.50
2022-09-01T06:09:46.484Z,101913.78
2022-09-01T06:12:21.901Z,101919.06
2022-09-01T06:14:54.881Z,101914.34
2022-09-01T06:17:25.891Z,101912.88
2022-09-01T06:19:56.820Z,101917.91
2022-09-01T06:22:28.317Z,101911.31
2022-09-01T06:25:01.752Z,101925.00
2022-09-01T06:27:34.019Z,101922.16
2022-09-01T06:30:01.241Z,101912.59
2022-09-01T06:32:35.310Z,101913.88
2022-09-01T06:35:05.632Z,101914.03
2022-09-01T06:37:34.516Z,101911.50
2022-09-01T06:40:03.603Z,101919.53
2022-09-01T06:42:35.235Z,101915.91
2022-09-01T06:45:02.522Z,101911.28
2022-09-01T06:47:29.593Z,101901.69
2022-09-01T06:49:59.000Z,101915.66
2022-09-01T06:52:27.915Z,101916.38
2022-09-01T06:54:55.898Z,101918.75
2022-09-01T07:00:20.809Z,101920.44
2022-09-01T07:02:56.450Z,101915.00
2022-09-01T07:06:06.446Z,101911.09
2022-09-01T07:14:33.456Z,101922.53
2022-09-01T07:19:48.787Z,101923.41
2022-09-01T07:30:50.978Z,101916.97
2022-09-01T07:36:27.993Z,101898.94
2022-09-01T07:42:56.656Z,101919.13
2022-09-01T07:45:32.884Z,101901.00
2022-09-01T07:48:03.508Z,101899.78
2022-09-01T07:51:34.412Z,101904.25
2022-09-01T07:53:31.374Z,101900.66
2022-09-01T07:56:09.577Z,101892.97
2022-09-01T07:58:45.017Z,101892.63
2022-09-01T08:01:24.191Z,101903.94
2022-09-01T08:03:59.356Z,101902.03
2022-09-01T08:06:28.590Z,101916.81
2022-09-01T08:09:00.492Z,101896.59
2022-09-01T08:14:18.984Z,101898.38
2022-09-01T08:16:53.723Z,101898.66
2022-09-01T08:19:21.176Z,101892.78
2022-09-01T08:22:11.081Z,101893.47
2022-09-01T08:25:00.709Z,101893.69
2022-09-01T08:27:28.780Z,101884.84
2022-09-01T08:29:56.107Z,101872.66
2022-09-01T08:32:23.238Z,101884.78
2022-09-01T08:34:50.602Z,101894.25
2022-09-01T08:37:17.591Z,101883.06
2022-09-01T08:39:46.625Z,101873.63
2022-09-01T08:42:22.679Z,101872.88
2022-09-01T08:45:09.843Z,101873.13
2022-09-01T08:47:55.955Z,101876.63
2022-09-01T08:50:25.495Z,101870.03
2022-09-01T08:53:45.886Z,101858.78
2022-09-01T08:56:14.299Z,101851.81
2022-09-01T08:58:41.764Z,101858.41
2022-09-01T09:01:45.289Z,101853.34
2022-09-01T09:04:35.926Z,101848.53
2022-09-01T09:07:18.660Z,101843.63
2022-09-01T09:10:06.605Z,101846.53
2022-09-01T09:12:56.028Z,101841.19
2022-09-01T09:15:41.570Z,101833.94
2022-09-01T09:19:00.321Z,101836.72
2022-09-01T09:21:40.720Z,101838.66
2022-09-01T09:24:29.177Z,101825.72
2022-09-01T09:27:07.125Z,101831.75
2022-09-01T09:29:36.926Z,101817.03
2022-09-01T09:32:22.519Z,101827.16
2022-09-01T09:34:50.788Z,101829.47
2022-09-01T09:37:30.850Z,101821.16
2022-09-01T09:40:16.348Z,101819.31
2022-09-01T09:42:54.402Z,101804.34
2022-09-01T09:45:42.429Z,101799.97
2022-09-01T09:48:34.377Z,101810.78
2022-09-01T09:51:21.971Z,101804.94
2022-09-01T09:53:50.143Z,101810.25
2022-09-01T09:56:20.491Z,101794.56
2022-09-01T09:58:49.012Z,101806.53
2022-09-01T10:01:26.107Z,101805.16
2022-09-01T10:03:57.719Z,101796.44
2022-09-01T10:06:46.842Z,101800.69
2022-09-01T10:09:37.381Z,101798.63
2022-09-01T10:12:07.081Z,101803.59
2022-09-01T10:14:52.021Z,101805.13
2022-09-01T10:17:36.353Z,101798.53
2022-09-01T10:20:11.648Z,101791.75
2022-09-01T10:22:41.299Z,101788.47
2022-09-01T10:25:23.824Z,101802.13
2022-09-01T10:27:58.424Z,101802.22
2022-09-01T10:30:28.207Z,101795.34
2022-09-01T10:33:07.965Z,101792.09
2022-09-01T10:35:47.175Z,101791.25
2022-09-01T10:38:34.269Z,101803.72
2022-09-01T10:41:15.008Z,101799.34
2022-09-01T10:43:49.339Z,101809.75
2022-09-01T10:46:26.568Z,101816.31
2022-09-01T10:49:02.876Z,101810.72
2022-09-01T10:51:36.318Z,101813.38
2022-09-01T10:54:06.705Z,101807.16
2022-09-01T10:56:54.067Z,101807.94
2022-09-01T10:59:31.663Z,101814.56
2022-09-01T11:02:26.001Z,101799.22
2022-09-01T11:05:00.833Z,101797.94
2022-09-01T11:07:58.269Z,101797.75
2022-09-01T11:11:16.815Z,101797.84
2022-09-01T11:13:52.299Z,101801.53
2022-09-01T11:16:46.598Z,101800.03
2022-09-01T11:19:29.238Z,101815.59
2022-09-01T11:22:33.852Z,101810.47
2022-09-01T11:25:48.520Z,101823.00
2022-09-01T11:28:42.088Z,101823.25
2022-09-01T11:31:09.085Z,101817.34
2022-09-01T11:33:58.472Z,101810.03
2022-09-01T11:36:59.387Z,101817.16
2022-09-01T11:39:36.737Z,101825.09
2022-09-01T11:42:24.532Z,101825.59
2022-09-01T11:45:06.045Z,101829.47
2022-09-01T11:47:46.121Z,101831.41
2022-09-01T11:50:35.981Z,101833.25
2022-09-01T11:53:08.779Z,101819.97
2022-09-01T11:55:42.766Z,101830.78
2022-09-01T11:58:17.819Z,101830.03
2022-09-01T12:00:45.494Z,101818.22
2022-09-01T12:03:29.773Z,101811.25
2022-09-01T12:06:01.713Z,101807.81
2022-09-01T12:08:42.701Z,101803.78
2022-09-01T12:11:19.954Z,101802.66
2022-09-01T12:14:12.047Z,101808.41
2022-09-01T12:16:42.715Z,101806.31
2022-09-01T12:19:24.558Z,101814.16
2022-09-01T12:22:23.122Z,101814.28
2022-09-01T12:24:53.932Z,101805.47
2022-09-01T12:27:23.382Z,101807.72
2022-09-01T12:29:51.547Z,101809.75
2022-09-01T12:32:19.848Z,101805.72
2022-09-01T12:35:05.625Z,101807.19
2022-09-01T12:37:36.718Z,101799.53
2022-09-01T12:40:04.387Z,101812.28
2022-09-01T12:42:38.993Z,101809.53
2022-09-01T12:45:10.958Z,101813.59
2022-09-01T12:47:40.486Z,101815.06
2022-09-01T12:50:13.768Z,101812.31
2022-09-01T12:52:53.818Z,101815.53
2022-09-01T12:58:25.644Z,101805.19
2022-09-01T13:01:12.236Z,101805.34
2022-09-01T13:04:27.252Z,101800.66
2022-09-01T13:07:04.335Z,101790.94
2022-09-01T13:09:31.644Z,101794.97
2022-09-01T13:12:21.239Z,101796.75
2022-09-01T13:14:48.737Z,101792.00
2022-09-01T13:17:15.856Z,101793.44
2022-09-01T13:19:43.127Z,101779.69
2022-09-01T13:22:10.932Z,101769.13
2022-09-01T13:24:39.651Z,101775.50
2022-09-01T13:27:22.984Z,101772.56
2022-09-01T13:29:51.192Z,101763.66
2022-09-01T13:35:13.390Z,101747.25
2022-09-01T13:37:42.371Z,101740.06
2022-09-01T13:40:15.566Z,101740.66
2022-09-01T13:42:44.453Z,101741.00
2022-09-01T13:45:14.039Z,101732.41
2022-09-01T13:51:13.258Z,101723.06
2022-09-01T13:53:16.795Z,101731.94
2022-09-01T13:55:43.898Z,101719.44
2022-09-01T13:58:11.109Z,101720.34
2022-09-01T14:00:43.847Z,101717.66
2022-09-01T14:03:19.413Z,101720.00
2022-09-01T14:05:48.682Z,101732.72
2022-09-01T14:08:21.366Z,101729.91
2022-09-01T14:10:53.280Z,101729.38
2022-09-01T14:13:22.635Z,101730.50
2022-09-01T14:15:50.260Z,101729.56
2022-09-01T14:21:15.277Z,101723.56
2022-09-01T14:23:43.936Z,101718.75
2022-09-01T14:26:13.801Z,101732.06
2022-09-01T14:28:45.865Z,101718.00
2022-09-01T14:31:17.667Z,101723.13
2022-09-01T14:33:45.505Z,101713.63
2022-09-01T14:36:22.844Z,101713.28
2022-09-01T14:38:52.241Z,101707.69
2022-09-01T14:41:26.711Z,101715.09
2022-09-01T14:44:02.819Z,101697.16
2022-09-01T14:46:34.259Z,101691.47
2022-09-01T14:49:03.413Z,101695.34
2022-09-01T14:54:19.351Z,101686.22
2022-09-01T14:59:35.626Z,101678.56
2022-09-01T15:02:03.148Z,101674.88
2022-09-01T15:04:30.784Z,101679.97
2022-09-01T15:06:57.914Z,101684.94
2022-09-01T15:09:24.849Z,101688.25
2022-09-01T15:11:52.221Z,101672.78
2022-09-01T15:14:19.318Z,101681.59
2022-09-01T15:16:47.279Z,101677.34
2022-09-01T15:19:14.493Z,101686.16
2022-09-01T15:21:44.197Z,101683.44
2022-09-01T15:24:11.830Z,101678.31
2022-09-01T15:26:40.818Z,101681.84
2022-09-01T15:29:12.045Z,101688.84
2022-09-01T15:31:41.287Z,101670.47
2022-09-01T15:34:09.201Z,101681.50
2022-09-01T15:36:39.994Z,101675.06
2022-09-01T15:39:08.441Z,101682.91
2022-09-01T15:41:36.083Z,101674.72
2022-09-01T15:44:06.917Z,101681.63
2022-09-01T15:46:39.074Z,101676.19
2022-09-01T15:49:09.827Z,101668.19
2022-09-01T15:51:45.179Z,101666.78
2022-09-01T15:54:15.317Z,101669.69
2022-09-01T15:56:42.883Z,101669.00
2022-09-01T15:59:11.662Z,101674.75
2022-09-01T16:01:45.424Z,101690.25
2022-09-01T16:04:20.012Z,101679.16
2022-09-01T16:06:49.433Z,101677.91
2022-09-01T16:09:26.052Z,101684.50
2022-09-01T16:11:53.866Z,101687.06
2022-09-01T16:14:21.117Z,101685.94
2022-09-01T16:17:15.436Z,101690.09
2022-09-01T16:20:00.865Z,101697.03
2022-09-01T16:22:34.544Z,101699.25
2022-09-01T16:25:13.884Z,101687.56
2022-09-01T16:27:44.443Z,101702.72
2022-09-01T16:30:18.622Z,101694.16
2022-09-01T16:32:49.695Z,101700.13
2022-09-01T16:35:19.892Z,101690.06
2022-09-01T16:37:53.625Z,101701.66
2022-09-01T16:40:46.956Z,101695.00
2022-09-01T16:43:35.115Z,101694.56
2022-09-01T16:46:43.315Z,101689.56
2022-09-01T16:49:42.456Z,101679.91
2022-09-01T16:52:29.033Z,101700.03
2022-09-01T16:55:18.396Z,101697.88
2022-09-01T16:58:06.333Z,101695.25
2022-09-01T17:00:51.882Z,101696.47
2022-09-01T17:03:42.828Z,101704.72
2022-09-01T17:06:19.653Z,101700.16
2022-09-01T17:08:52.500Z,101705.72
2022-09-01T17:11:28.493Z,101708.22
2022-09-01T17:13:56.730Z,101711.06
2022-09-01T17:16:39.417Z,101708.84
2022-09-01T17:19:17.866Z,101711.28
2022-09-01T17:22:07.514Z,101714.84
2022-09-01T17:24:38.733Z,101713.69
2022-09-01T17:27:34.060Z,101714.31
2022-09-01T17:30:02.462Z,101732.19
2022-09-01T17:32:55.802Z,101730.03
2022-09-01T17:35:52.888Z,101736.63
2022-09-01T17:38:54.101Z,101741.84
2022-09-01T17:41:42.549Z,101747.53
2022-09-01T17:44:21.106Z,101738.50
2022-09-01T17:47:20.457Z,101754.00
2022-09-01T17:50:05.491Z,101744.38
2022-09-01T17:53:29.917Z,101748.13
2022-09-01T17:56:13.584Z,101763.81
2022-09-01T17:58:58.846Z,101758.78
2022-09-01T18:01:36.088Z,101756.44
2022-09-01T18:04:52.056Z,101764.41
2022-09-01T18:07:59.439Z,101763.97
2022-09-01T18:10:41.309Z,101774.13
2022-09-01T18:13:30.674Z,101777.47
2022-09-01T18:16:11.638Z,101769.91
2022-09-01T18:18:46.951Z,101774.03
2022-09-01T18:21:30.929Z,101774.59
2022-09-01T18:24:21.584Z,101781.19
2022-09-01T18:26:51.193Z,101778.22
2022-09-01T18:29:19.717Z,101786.97
2022-09-01T18:32:26.915Z,101778.78
2022-09-01T18:35:36.768Z,101782.88
2022-09-01T18:38:24.688Z,101790.19
2022-09-01T18:41:25.545Z,101792.91
2022-09-01T18:44:20.459Z,101800.50
2022-09-01T18:47:13.174Z,101805.94
2022-09-01T18:50:01.717Z,101800.16
2022-09-01T18:52:55.636Z,101803.94
2022-09-01T18:55:55.362Z,101805.00
2022-09-01T18:59:05.951Z,101816.09
2022-09-01T19:01:50.364Z,101808.97
2022-09-01T19:04:36.201Z,101813.81
2022-09-01T19:07:35.632Z,101815.69
2022-09-01T19:10:21.226Z,101816.72
2022-09-01T19:13:28.209Z,101815.00
2022-09-01T19:16:18.493Z,101817.66
2022-09-01T19:18:56.507Z,101808.13
2022-09-01T19:21:32.443Z,101822.72
2022-09-01T19:24:17.126Z,101816.16
2022-09-01T19:27:00.633Z,101820.72
2022-09-01T19:29:44.118Z,101819.50
2022-09-01T19:32:18.098Z,101821.41
2022-09-01T19:35:18.959Z,101825.91
2022-09-01T19:37:50.961Z,101825.88
2022-09-01T19:40:26.185Z,101819.59
2022-09-01T19:43:06.513Z,101814.13
2022-09-01T19:45:52.503Z,101819.19
2022-09-01T19:48:28.251Z,101823.16
2022-09-01T19:51:14.247Z,101821.50
2022-09-01T19:54:11.499Z,101834.72
2022-09-01T19:57:37.286Z,101817.56
2022-09-01T20:00:24.362Z,101827.25
2022-09-01T20:03:09.658Z,101825.31
2022-09-01T20:05:42.693Z,101821.72
2022-09-01T20:08:23.845Z,101828.16
2022-09-01T20:11:13.215Z,101829.22
2022-09-01T20:13:58.358Z,101836.22
2022-09-01T20:16:40.069Z,101832.88
2022-09-01T20:19:43.221Z,101823.63
2022-09-01T20:22:21.428Z,101828.75
2022-09-01T20:24:48.971Z,101834.91
2022-09-01T20:27:51.970Z,101835.91
2022-09-01T20:30:34.153Z,101819.88
2022-09-01T20:33:25.897Z,101835.50
2022-09-01T20:36:04.389Z,101845.44
2022-09-01T20:39:16.434Z,101834.81
2022-09-01T20:43:14.895Z,101837.38
2022-09-01T20:45:42.842Z,101843.78
2022-09-01T20:48:22.618Z,101838.63
2022-09-01T20:51:09.782Z,101840.75
2022-09-01T20:54:04.104Z,101834.13
2022-09-01T20:56:45.488Z,101833.28
2022-09-01T20:59:48.049Z,101844.34
2022-09-01T21:02:38.413Z,101845.09
2022-09-01T21:05:38.311Z,101851.00
2022-09-01T21:08:49.130Z,101843.63
2022-09-01T21:11:35.549Z,101854.94
2022-09-01T21:14:33.594Z,101847.91
2022-09-01T21:17:42.081Z,101857.06
2022-09-01T21:20:37.451Z,101850.53
2022-09-01T21:23:06.537Z,101843.97
2022-09-01T21:25:34.484Z,101838.56
2022-09-01T21:28:04.592Z,101839.63
2022-09-01T21:30:34.906Z,101850.19
2022-09-01T21:33:02.882Z,101849.38
2022-09-01T21:35:29.782Z,101829.50
2022-09-01T21:37:56.780Z,101852.09
2022-09-01T21:40:26.370Z,101853.16
2022-09-01T21:43:03.462Z,101845.03
2022-09-01T21:45:33.104Z,101853.66
2022-09-01T21:48:02.840Z,101835.81
2022-09-01T21:50:29.929Z,101852.66
2022-09-01T21:52:56.738Z,101846.94
2022-09-01T21:55:25.066Z,101845.38
2022-09-01T21:57:52.361Z,101824.75
2022-09-01T22:00:26.637Z,101831.88
2022-09-01T22:02:54.423Z,101849.22
2022-09-01T22:05:21.660Z,101840.28
2022-09-01T22:07:48.623Z,101840.84
2022-09-01T22:10:20.864Z,101837.59
2022-09-01T22:12:50.494Z,101839.22
2022-09-01T22:15:23.042Z,101833.75
2022-09-01T22:17:50.926Z,101833.75
2022-09-01T22:20:22.265Z,101836.69
2022-09-01T22:22:50.712Z,101838.56
2022-09-01T22:25:21.246Z,101827.69
2022-09-01T22:27:48.253Z,101837.44
2022-09-01T22:30:16.819Z,101843.91
2022-09-01T22:32:45.240Z,101842.25
2022-09-01T22:35:13.976Z,101843.09
2022-09-01T22:37:41.660Z,101844.72
2022-09-01T22:40:10.242Z,101833.03
2022-09-01T22:42:37.613Z,101837.84
2022-09-01T22:45:07.276Z,101845.88
2022-09-01T22:47:37.401Z,101839.09
2022-09-01T22:50:09.323Z,101835.22
2022-09-01T22:52:37.027Z,101851.91
2022-09-01T22:55:07.055Z,101834.22
2022-09-01T22:57:34.400Z,101836.59
2022-09-01T23:00:01.446Z,101837.09
2022-09-01T23:02:28.628Z,101838.16
2022-09-01T23:04:55.514Z,101835.59
2022-09-01T23:07:22.561Z,101836.09
2022-09-01T23:09:49.411Z,101832.81
2022-09-01T23:12:16.325Z,101835.16
2022-09-01T23:14:43.529Z,101833.66
2022-09-01T23:17:10.439Z,101834.25
2022-09-01T23:19:37.291Z,101831.22
2022-09-01T23:22:04.683Z,101833.59
2022-09-01T23:24:31.649Z,101823.75
2022-09-01T23:26:58.918Z,101821.16
2022-09-01T23:29:25.777Z,101829.00
2022-09-01T23:31:53.107Z,101830.31
2022-09-01T23:34:20.072Z,101830.06
2022-09-01T23:36:47.261Z,101827.69
2022-09-01T23:39:14.496Z,101834.25
2022-09-01T23:41:42.180Z,101824.28
2022-09-01T23:44:11.476Z,101815.94
2022-09-01T23:46:45.093Z,101821.44
2022-09-01T23:49:15.344Z,101814.63
2022-09-01T23:51:42.996Z,101823.91
2022-09-01T23:54:11.136Z,101823.41
2022-09-01T23:56:38.992Z,101819.66
2022-09-01T23:59:07.405Z,101815.66
